Time;durP1;ratioP1;P1;durP2;ratioP2;P2;SDS_P1;SDS_P2;PMS_P1;PMS_P2;Temp;Humidity;BMP_temperature;BMP_pressure;BME280_temperature;BME280_humidity;BME280_pressure;Samples;Min_cycle;Max_cycle;Signal;HPM_P1;HPM_P2
2022/06/25 07:27:08;;;;;;;15.77;11.45;;;;;;;;;;5091116;28;20397;-78
2022/06/25 07:29:34;;;;;;;16.90;11.50;;;;;;;;;;5090780;28;20458;-78
2022/06/25 07:32:00;;;;;;;20.13;10.52;;;;;;;;;;5090417;28;20017;-79
2022/06/25 07:34:26;;;;;;;17.58;11.48;;;;;;;;;;5089849;28;20016;-77
2022/06/25 07:36:53;;;;;;;13.90;10.40;;;;;;;;;;5091176;28;20028;-78
2022/06/25 07:39:19;;;;;;;14.38;10.43;;;;;;;;;;5089205;28;20367;-78
2022/06/25 07:41:45;;;;;;;14.40;11.27;;;;;;;;;;5090650;28;20024;-76
2022/06/25 07:44:12;;;;;;;15.77;10.70;;;;;;;;;;5090669;28;20028;-79
2022/06/25 07:46:39;;;;;;;17.55;9.38;;;;;;;;;;5089394;28;20033;-75
2022/06/25 07:49:07;;;;;;;17.25;10.38;;;;;;;;;;5089676;28;20021;-75
2022/06/25 07:54:18;;;;;;;14.93;10.25;;;;;;;;;;5089956;28;20433;-76
2022/06/25 07:56:44;;;;;;;15.40;10.07;;;;;;;;;;5090579;28;20536;-78
2022/06/25 07:59:11;;;;;;;15.50;10.30;;;;;;;;;;5087741;28;20012;-76
2022/06/25 08:01:37;;;;;;;17.13;10.25;;;;;;;;;;5089583;28;20077;-76
2022/06/25 08:04:03;;;;;;;13.10;9.02;;;;;;;;;;5090192;28;20024;-77
2022/06/25 08:06:30;;;;;;;12.55;8.98;;;;;;;;;;5089141;28;20028;-78
2022/06/25 08:08:56;;;;;;;12.30;8.55;;;;;;;;;;5089962;28;20025;-77
2022/06/25 08:11:23;;;;;;;11.82;7.97;;;;;;;;;;5090501;28;20024;-79
2022/06/25 08:13:49;;;;;;;13.48;8.50;;;;;;;;;;5088692;28;20426;-77
2022/06/25 08:16:15;;;;;;;12.40;8.18;;;;;;;;;;5089107;28;20099;-76
2022/06/25 08:18:41;;;;;;;12.20;9.18;;;;;;;;;;5089099;28;20061;-77
2022/06/25 08:21:07;;;;;;;12.10;8.48;;;;;;;;;;5088584;28;20047;-76
2022/06/25 08:23:33;;;;;;;13.15;9.50;;;;;;;;;;5087711;28;20016;-77
2022/06/25 08:25:59;;;;;;;13.27;8.48;;;;;;;;;;5088604;28;20091;-77
2022/06/25 08:28:25;;;;;;;14.00;9.20;;;;;;;;;;5088228;28;20399;-77
2022/06/25 08:30:52;;;;;;;14.60;9.27;;;;;;;;;;5088822;28;20024;-78
2022/06/25 08:33:18;;;;;;;10.95;9.45;;;;;;;;;;5088921;28;20505;-75
2022/06/25 08:35:44;;;;;;;16.20;9.23;;;;;;;;;;5089070;28;20028;-76
2022/06/25 08:38:10;;;;;;;16.05;9.52;;;;;;;;;;5076620;28;20029;-76
2022/06/25 08:40:36;;;;;;;10.90;8.57;;;;;;;;;;5076346;28;20017;-76
2022/06/25 08:43:02;;;;;;;11.10;8.80;;;;;;;;;;5076460;28;20050;-76
2022/06/25 08:45:29;;;;;;;14.50;9.38;;;;;;;;;;5076430;28;20036;-78
2022/06/25 08:47:58;;;;;;;12.57;9.10;;;;;;;;;;5075515;28;20097;-76
2022/06/25 08:50:24;;;;;;;14.55;9.20;;;;;;;;;;5075128;28;20020;-77
2022/06/25 08:52:51;;;;;;;13.52;9.20;;;;;;;;;;5074163;28;20036;-75
2022/06/25 08:55:23;;;;;;;14.20;9.90;;;;;;;;;;5075426;28;20032;-76
2022/06/25 08:57:50;;;;;;;18.13;9.48;;;;;;;;;;5074889;28;20099;-77
2022/06/25 09:00:16;;;;;;;14.93;9.80;;;;;;;;;;5075130;28;20021;-78
2022/06/25 09:02:42;;;;;;;13.43;8.90;;;;;;;;;;5073990;28;20402;-77
2022/06/25 09:05:08;;;;;;;14.48;8.80;;;;;;;;;;5074420;28;20017;-77
2022/06/25 09:07:36;;;;;;;13.77;8.57;;;;;;;;;;5074210;28;20051;-77
2022/06/25 09:10:02;;;;;;;9.80;8.80;;;;;;;;;;5074395;28;20026;-76
2022/06/25 09:12:29;;;;;;;14.77;9.02;;;;;;;;;;5073379;28;20393;-78
2022/06/25 09:14:55;;;;;;;15.38;8.90;;;;;;;;;;5071849;28;20495;-76
2022/06/25 09:17:21;;;;;;;12.82;8.40;;;;;;;;;;5072006;28;20100;-76
2022/06/25 09:19:50;;;;;;;14.52;7.47;;;;;;;;;;5074195;28;20024;-75
2022/06/25 09:22:20;;;;;;;10.82;8.23;;;;;;;;;;5072233;28;20032;-76
2022/06/25 09:25:03;;;;;;;11.25;9.05;;;;;;;;;;5061959;28;20043;-75
2022/06/25 09:27:39;;;;;;;15.07;9.15;;;;;;;;;;5056071;28;20029;-76
2022/06/25 09:30:10;;;;;;;10.05;8.00;;;;;;;;;;5053390;28;20025;-76
2022/06/25 09:32:50;;;;;;;8.98;8.07;;;;;;;;;;5053904;28;20028;-76
2022/06/25 09:35:30;;;;;;;11.63;7.35;;;;;;;;;;5054762;28;20056;-76
2022/06/25 09:38:03;;;;;;;10.45;7.45;;;;;;;;;;5054453;28;20067;-76
2022/06/25 09:40:30;;;;;;;11.85;7.82;;;;;;;;;;5054233;28;20063;-76
2022/06/25 09:42:57;;;;;;;9.35;7.45;;;;;;;;;;5053907;28;20044;-76
2022/06/25 09:45:23;;;;;;;8.88;7.45;;;;;;;;;;5053269;28;20071;-76
2022/06/25 09:47:49;;;;;;;9.35;8.32;;;;;;;;;;5072685;28;20028;-76
2022/06/25 09:50:16;;;;;;;10.52;8.00;;;;;;;;;;5073662;28;20021;-76
2022/06/25 09:52:59;;;;;;;13.02;7.50;;;;;;;;;;5073601;28;20471;-77
2022/06/25 09:55:27;;;;;;;10.82;7.72;;;;;;;;;;5070361;28;20082;-76
2022/06/25 09:57:53;;;;;;;14.23;8.27;;;;;;;;;;5073847;28;20017;-77
2022/06/25 10:00:20;;;;;;;9.93;7.70;;;;;;;;;;5072275;28;20459;-77
2022/06/25 10:02:47;;;;;;;11.15;6.45;;;;;;;;;;5073660;28;20383;-76
2022/06/25 10:05:14;;;;;;;12.35;6.88;;;;;;;;;;5073951;28;20041;-77
2022/06/25 10:08:00;;;;;;;11.23;6.60;;;;;;;;;;5073571;28;20025;-76
2022/06/25 10:10:28;;;;;;;11.82;7.60;;;;;;;;;;5074227;28;20107;-75
2022/06/25 10:12:55;;;;;;;8.13;7.15;;;;;;;;;;5072378;28;20488;-76
2022/06/25 10:15:23;;;;;;;11.85;7.00;;;;;;;;;;5073774;28;20496;-76
2022/06/25 10:17:54;;;;;;;13.98;7.13;;;;;;;;;;5072550;28;20024;-76
2022/06/25 10:20:20;;;;;;;9.27;7.10;;;;;;;;;;5073700;28;20110;-76
2022/06/25 10:22:48;;;;;;;5.88;5.20;;;;;;;;;;5072378;28;20031;-76
2022/06/25 10:25:16;;;;;;;6.45;5.75;;;;;;;;;;5073430;28;20052;-76
2022/06/25 10:27:43;;;;;;;13.23;6.18;;;;;;;;;;5071975;28;20021;-77
2022/06/25 10:30:09;;;;;;;11.27;6.85;;;;;;;;;;5073781;28;20021;-77
2022/06/25 10:32:49;;;;;;;10.75;6.55;;;;;;;;;;5073513;28;20023;-77
2022/06/25 10:35:28;;;;;;;7.82;6.35;;;;;;;;;;5072202;28;20028;-77
2022/06/25 10:38:00;;;;;;;13.40;6.80;;;;;;;;;;5074047;28;20021;-76
2022/06/25 10:40:27;;;;;;;9.85;7.32;;;;;;;;;;5073786;28;20470;-76
2022/06/25 10:42:59;;;;;;;12.82;7.47;;;;;;;;;;5073075;28;20017;-78
2022/06/25 10:45:26;;;;;;;10.73;7.82;;;;;;;;;;5073500;28;20073;-77
2022/06/25 10:47:54;;;;;;;15.23;7.35;;;;;;;;;;5072732;28;20029;-78
2022/06/25 10:50:23;;;;;;;13.48;7.55;;;;;;;;;;5073147;28;20478;-75
2022/06/25 10:53:07;;;;;;;14.23;6.82;;;;;;;;;;5071930;28;20029;-77
2022/06/25 10:55:34;;;;;;;11.57;7.47;;;;;;;;;;5072889;28;20050;-75
2022/06/25 10:58:09;;;;;;;10.70;7.95;;;;;;;;;;5073249;28;20028;-75
2022/06/25 11:00:46;;;;;;;12.52;7.57;;;;;;;;;;5072584;28;20353;-75
2022/06/25 11:03:12;;;;;;;9.10;8.10;;;;;;;;;;5072758;28;20017;-76
2022/06/25 11:05:42;;;;;;;9.70;8.40;;;;;;;;;;5072735;28;20127;-76
2022/06/25 11:08:08;;;;;;;9.90;8.23;;;;;;;;;;5073304;28;20032;-77
2022/06/25 11:10:35;;;;;;;8.30;7.32;;;;;;;;;;5072338;28;20474;-76
2022/06/25 11:13:02;;;;;;;10.13;7.47;;;;;;;;;;5071974;28;20025;-76
2022/06/25 11:15:41;;;;;;;8.77;7.57;;;;;;;;;;5072690;28;20098;-77
2022/06/25 11:18:13;;;;;;;13.82;7.55;;;;;;;;;;5073307;28;20020;-77
2022/06/25 11:20:40;;;;;;;8.98;7.53;;;;;;;;;;5072992;28;20490;-77
2022/06/25 11:23:10;;;;;;;8.98;6.78;;;;;;;;;;5071448;28;20379;-76
2022/06/25 11:28:48;;;;;;;9.07;6.95;;;;;;;;;;5072644;28;20035;-75
2022/06/25 11:31:17;;;;;;;11.60;7.80;;;;;;;;;;5073137;28;20031;-76
2022/06/25 11:33:44;;;;;;;10.85;8.18;;;;;;;;;;5072490;28;20020;-76
2022/06/25 11:36:11;;;;;;;13.32;7.50;;;;;;;;;;5073029;28;20025;-75
2022/06/25 11:38:37;;;;;;;14.95;7.57;;;;;;;;;;5072371;28;20070;-77
2022/06/25 11:41:03;;;;;;;11.23;6.97;;;;;;;;;;5072909;28;20048;-75
2022/06/25 11:43:30;;;;;;;9.60;7.28;;;;;;;;;;5072550;28;20547;-77
2022/06/25 11:45:57;;;;;;;10.20;8.02;;;;;;;;;;5072846;28;20032;-77
2022/06/25 11:48:27;;;;;;;11.82;7.03;;;;;;;;;;5073112;28;20048;-76
2022/06/25 11:50:56;;;;;;;12.90;7.88;;;;;;;;;;5072330;28;20032;-76
2022/06/25 11:53:23;;;;;;;11.18;7.82;;;;;;;;;;5072781;28;20103;-75
2022/06/25 11:56:02;;;;;;;9.23;7.70;;;;;;;;;;5071257;28;20028;-76
2022/06/25 11:58:30;;;;;;;12.88;7.65;;;;;;;;;;5071245;28;20467;-77
2022/06/25 12:01:05;;;;;;;8.27;7.22;;;;;;;;;;5072610;28;20367;-75
2022/06/25 12:03:32;;;;;;;10.13;7.63;;;;;;;;;;5072653;28;20021;-76
2022/06/25 12:05:59;;;;;;;11.32;7.28;;;;;;;;;;5072094;28;20376;-76
2022/06/25 12:08:26;;;;;;;11.02;7.28;;;;;;;;;;5072434;28;20032;-77
2022/06/25 12:11:01;;;;;;;9.48;6.93;;;;;;;;;;5072668;28;20027;-76
2022/06/25 12:13:29;;;;;;;8.85;7.25;;;;;;;;;;5075151;28;20021;-77
2022/06/25 12:15:58;;;;;;;12.02;6.82;;;;;;;;;;5076183;28;20042;-75
2022/06/25 12:18:38;;;;;;;15.40;7.93;;;;;;;;;;5075912;28;20028;-77
2022/06/25 12:21:05;;;;;;;12.82;7.40;;;;;;;;;;5076532;28;20044;-77
2022/06/25 12:23:48;;;;;;;8.50;6.85;;;;;;;;;;5076254;28;20027;-77
2022/06/25 12:26:23;;;;;;;12.07;7.45;;;;;;;;;;5075471;28;20044;-76
2022/06/25 12:28:49;;;;;;;15.20;8.40;;;;;;;;;;5076045;28;20031;-76
2022/06/25 12:31:16;;;;;;;16.58;9.55;;;;;;;;;;5074799;28;20067;-77
2022/06/25 12:33:49;;;;;;;12.25;8.90;;;;;;;;;;5074903;28;20020;-76
2022/06/25 12:36:17;;;;;;;12.38;8.73;;;;;;;;;;5075768;28;20024;-77
2022/06/25 12:38:43;;;;;;;12.43;8.85;;;;;;;;;;5075733;28;20017;-76
2022/06/25 12:41:09;;;;;;;9.57;8.05;;;;;;;;;;5075310;28;20052;-78
2022/06/25 12:43:48;;;;;;;11.73;8.90;;;;;;;;;;5074298;28;20073;-76
2022/06/25 12:46:18;;;;;;;11.75;8.25;;;;;;;;;;5075327;28;20032;-76
2022/06/25 12:48:44;;;;;;;12.50;7.38;;;;;;;;;;5075263;28;20082;-76
2022/06/25 12:51:12;;;;;;;11.55;8.52;;;;;;;;;;5075727;28;20085;-77
2022/06/25 12:53:38;;;;;;;10.07;7.57;;;;;;;;;;5075363;28;20486;-76
2022/06/25 12:56:05;;;;;;;9.25;7.75;;;;;;;;;;5074567;28;20028;-75
2022/06/25 12:58:35;;;;;;;8.52;7.07;;;;;;;;;;5074333;28;20028;-77
2022/06/25 13:01:01;;;;;;;15.50;8.25;;;;;;;;;;5073487;28;20053;-75
2022/06/25 13:03:27;;;;;;;9.18;8.07;;;;;;;;;;5074462;28;20040;-77
2022/06/25 13:05:53;;;;;;;10.60;7.57;;;;;;;;;;5073308;28;20127;-77
2022/06/25 13:08:19;;;;;;;10.07;7.68;;;;;;;;;;5074576;28;20031;-76
2022/06/25 13:10:47;;;;;;;12.02;7.53;;;;;;;;;;5074530;28;20158;-76
2022/06/25 13:13:13;;;;;;;12.02;7.55;;;;;;;;;;5072557;28;20111;-75
2022/06/25 13:15:39;;;;;;;10.77;7.47;;;;;;;;;;5073072;28;20099;-76
2022/06/25 13:18:06;;;;;;;12.00;7.70;;;;;;;;;;5074503;28;20371;-75
2022/06/25 13:20:32;;;;;;;13.68;8.27;;;;;;;;;;5074464;28;20017;-76
2022/06/25 13:22:58;;;;;;;10.32;8.15;;;;;;;;;;5074631;28;20025;-75
2022/06/25 13:25:24;;;;;;;9.10;7.38;;;;;;;;;;5074877;28;20048;-76
2022/06/25 13:27:51;;;;;;;8.90;7.63;;;;;;;;;;5074900;28;20027;-74
2022/06/25 13:30:17;;;;;;;11.55;7.40;;;;;;;;;;5074654;28;20050;-75
2022/06/25 13:32:44;;;;;;;14.77;7.60;;;;;;;;;;5074824;28;20024;-75
2022/06/25 13:35:10;;;;;;;9.85;7.30;;;;;;;;;;5074510;28;20379;-75
2022/06/25 13:37:36;;;;;;;10.35;6.95;;;;;;;;;;5074531;28;20024;-76
2022/06/25 13:40:03;;;;;;;9.65;8.02;;;;;;;;;;5075136;28;20032;-75
2022/06/25 13:42:29;;;;;;;12.55;7.10;;;;;;;;;;5074635;28;20017;-74
2022/06/25 13:44:55;;;;;;;8.73;7.32;;;;;;;;;;5072950;28;20383;-76
2022/06/25 13:47:21;;;;;;;10.65;6.82;;;;;;;;;;5074379;28;20356;-76
2022/06/25 13:49:49;;;;;;;11.40;8.48;;;;;;;;;;5074110;28;20029;-76
2022/06/25 13:52:15;;;;;;;12.35;6.93;;;;;;;;;;5074527;28;20103;-75
2022/06/25 13:54:41;;;;;;;9.60;6.95;;;;;;;;;;5073116;28;20119;-76
2022/06/25 13:57:07;;;;;;;14.57;7.38;;;;;;;;;;5073876;28;20379;-75
2022/06/25 13:59:33;;;;;;;10.77;7.43;;;;;;;;;;5073759;28;20481;-75
2022/06/25 14:01:59;;;;;;;10.55;7.40;;;;;;;;;;5074156;28;20095;-75
2022/06/25 14:04:25;;;;;;;13.45;7.93;;;;;;;;;;5073597;28;20021;-76
2022/06/25 14:06:52;;;;;;;10.55;7.63;;;;;;;;;;5073449;28;20478;-75
2022/06/25 14:09:18;;;;;;;11.43;7.70;;;;;;;;;;5073757;28;20051;-76
2022/06/25 14:11:44;;;;;;;14.13;7.88;;;;;;;;;;5073003;28;20023;-77
2022/06/25 14:14:11;;;;;;;12.13;7.85;;;;;;;;;;5072950;28;20025;-75
2022/06/25 14:16:37;;;;;;;13.13;7.97;;;;;;;;;;5074326;28;20047;-76
2022/06/25 14:19:03;;;;;;;10.98;7.30;;;;;;;;;;5073798;28;20031;-75
2022/06/25 14:21:30;;;;;;;12.68;7.38;;;;;;;;;;5073975;28;20039;-76
2022/06/25 14:23:56;;;;;;;11.35;7.72;;;;;;;;;;5073809;28;20016;-75
2022/06/25 14:26:22;;;;;;;9.93;7.72;;;;;;;;;;5072109;28;20083;-75
2022/06/25 14:28:48;;;;;;;9.57;7.03;;;;;;;;;;5073597;28;20031;-76
2022/06/25 14:31:14;;;;;;;9.85;7.63;;;;;;;;;;5073389;28;20421;-76
2022/06/25 14:33:40;;;;;;;13.10;7.60;;;;;;;;;;5073168;28;20442;-76
2022/06/25 14:44:23;;;;;;;10.45;7.60;;;;;;;;;;5073435;28;20439;-75
2022/06/25 14:46:50;;;;;;;12.93;7.38;;;;;;;;;;5072637;28;20040;-76
2022/06/25 14:49:16;;;;;;;15.57;7.95;;;;;;;;;;5073556;28;20032;-75
2022/06/25 14:51:42;;;;;;;13.13;7.60;;;;;;;;;;5072957;28;20500;-76
2022/06/25 14:54:08;;;;;;;9.85;7.53;;;;;;;;;;5073394;28;20133;-76
2022/06/25 14:56:35;;;;;;;9.63;7.38;;;;;;;;;;5072622;28;20044;-76
2022/06/25 14:59:01;;;;;;;19.48;9.32;;;;;;;;;;5072976;28;20078;-76
2022/06/25 15:01:27;;;;;;;11.85;8.43;;;;;;;;;;5072451;28;20031;-76
2022/06/25 15:03:53;;;;;;;14.02;8.73;;;;;;;;;;5072900;28;20025;-74
2022/06/25 15:06:19;;;;;;;16.17;8.80;;;;;;;;;;5071945;28;20557;-75
2022/06/25 15:08:46;;;;;;;14.18;8.80;;;;;;;;;;5072861;28;20438;-77
2022/06/25 15:11:13;;;;;;;14.70;8.73;;;;;;;;;;5073001;28;20027;-75
2022/06/25 15:13:39;;;;;;;11.60;8.10;;;;;;;;;;5071179;28;20120;-76
2022/06/25 15:16:07;;;;;;;15.23;9.55;;;;;;;;;;5072590;28;20427;-76
2022/06/25 15:18:33;;;;;;;12.23;8.32;;;;;;;;;;5072637;28;20016;-77
2022/06/25 15:20:59;;;;;;;12.75;8.98;;;;;;;;;;5072646;28;20029;-75
2022/06/25 15:23:25;;;;;;;12.73;9.80;;;;;;;;;;5072820;28;20020;-76
2022/06/25 15:25:52;;;;;;;15.07;10.02;;;;;;;;;;5072449;28;20044;-75
2022/06/25 15:28:18;;;;;;;19.40;9.75;;;;;;;;;;5072788;28;20016;-75
2022/06/25 15:30:44;;;;;;;18.83;8.85;;;;;;;;;;5072842;28;20024;-75
2022/06/25 15:33:10;;;;;;;17.35;9.90;;;;;;;;;;5072638;28;20483;-75
2022/06/25 15:35:37;;;;;;;10.02;9.10;;;;;;;;;;5072026;28;20074;-75
2022/06/25 15:38:06;;;;;;;14.82;10.23;;;;;;;;;;5068602;28;20021;-75
2022/06/25 15:40:32;;;;;;;11.65;9.80;;;;;;;;;;5072110;28;20029;-74
2022/06/25 15:42:58;;;;;;;13.38;9.90;;;;;;;;;;5069701;28;20058;-75
2022/06/25 15:45:25;;;;;;;19.42;10.63;;;;;;;;;;5070193;28;20093;-76
2022/06/25 15:47:51;;;;;;;11.48;9.85;;;;;;;;;;5073754;28;20052;-76
2022/06/25 15:50:17;;;;;;;14.80;9.43;;;;;;;;;;5074966;28;20017;-77
2022/06/25 15:52:43;;;;;;;16.67;10.85;;;;;;;;;;5076783;28;20036;-77
2022/06/25 15:55:09;;;;;;;15.10;9.95;;;;;;;;;;5077016;28;20086;-76
2022/06/25 15:57:35;;;;;;;12.50;9.13;;;;;;;;;;5075024;28;20059;-76
2022/06/25 16:00:02;;;;;;;19.80;10.60;;;;;;;;;;5076693;28;20459;-77
2022/06/25 16:02:28;;;;;;;21.85;11.05;;;24.10;99.90;;;;;;5076194;28;20157;-76
2022/06/25 16:04:53;;;;;;;26.20;12.07;;;23.70;99.90;;;;;;5076058;28;20490;-78
2022/06/25 16:07:19;;;;;;;19.80;10.02;;;23.30;99.90;;;;;;5074814;28;20063;-77
2022/06/25 16:09:45;;;;;;;21.45;10.40;;;22.60;99.90;;;;;;5074587;28;20036;-78
2022/06/25 16:12:11;;;;;;;21.83;12.88;;;22.10;99.90;;;;;;5076227;28;20394;-77
2022/06/25 16:14:37;;;;;;;20.15;12.75;;;21.80;99.90;;;;;;5074481;28;20107;-80
2022/06/25 16:17:03;;;;;;;29.30;10.75;;;21.50;99.90;;;;;;5075273;28;20171;-78
2022/06/25 16:19:29;;;;;;;22.38;14.52;;;21.40;99.90;;;;;;5076245;28;20028;-78
2022/06/25 16:21:55;;;;;;;25.02;10.82;;;21.30;99.90;;;;;;5076134;28;20499;-77
2022/06/25 16:24:23;;;;;;;22.15;14.65;;;21.20;99.90;;;;;;5076235;28;20351;-80
2022/06/25 16:26:50;;;;;;;26.25;15.23;;;21.20;99.90;;;;;;5075432;28;20641;-78
2022/06/25 16:29:17;;;;;;;22.55;14.88;;;21.00;99.90;;;;;;5075420;28;20024;-79
2022/06/25 16:31:43;;;;;;;25.67;16.25;;;20.90;99.90;;;;;;5074714;28;20542;-79
2022/06/25 16:34:09;;;;;;;17.83;12.38;;;20.90;99.90;;;;;;5074851;28;20103;-78
2022/06/25 16:36:34;;;;;;;22.25;14.98;;;20.80;99.90;;;;;;5075859;28;20032;-79
2022/06/25 16:39:01;;;;;;;27.15;20.50;;;20.80;99.90;;;;;;5075523;28;20051;-79
2022/06/25 16:41:28;;;;;;;34.53;22.27;;;20.90;99.90;;;;;;5075504;28;20020;-78
2022/06/25 16:44:06;;;;;;;25.75;17.75;;;21.00;99.90;;;;;;5075775;28;20047;-78
2022/06/25 16:46:37;;;;;;;26.17;16.38;;;20.90;99.90;;;;;;5074273;28;20047;-78
2022/06/25 16:49:13;;;;;;;25.25;16.23;;;20.90;99.90;;;;;;5075270;28;20022;-79
2022/06/25 16:51:41;;;;;;;19.88;13.77;;;20.90;99.90;;;;;;5074235;28;20471;-79
2022/06/25 16:54:09;;;;;;;16.00;11.25;;;20.90;99.90;;;;;;5074480;28;20052;-79
2022/06/25 16:56:35;;;;;;;18.40;11.43;;;20.80;99.90;;;;;;5075399;28;20107;-79
2022/06/25 16:59:03;;;;;;;17.33;12.18;;;20.80;99.90;;;;;;5074901;28;20078;-78
2022/06/25 17:01:29;;;;;;;14.23;10.98;;;20.90;99.90;;;;;;5074190;28;20074;-79
2022/06/25 17:03:57;;;;;;;13.32;10.48;;;20.90;99.90;;;;;;5072082;28;20028;-80
2022/06/25 17:06:26;;;;;;;17.15;11.77;;;20.90;99.90;;;;;;5073401;28;20032;-78
2022/06/25 17:08:53;;;;;;;16.27;12.25;;;21.00;99.90;;;;;;5074683;28;20056;-78
2022/06/25 17:11:19;;;;;;;14.27;9.55;;;21.10;99.90;;;;;;5073938;28;20044;-78
2022/06/25 17:13:45;;;;;;;13.50;9.80;;;21.20;99.90;;;;;;5071913;28;20051;-78
2022/06/25 17:16:11;;;;;;;13.02;10.02;;;21.10;99.90;;;;;;5075226;28;20058;-78
2022/06/25 17:18:37;;;;;;;13.05;8.70;;;21.20;99.90;;;;;;5073602;28;20443;-79
2022/06/25 17:21:03;;;;;;;9.80;8.77;;;21.20;99.90;;;;;;5073629;28;20032;-79
2022/06/25 17:23:31;;;;;;;15.23;9.88;;;21.20;99.90;;;;;;5073489;28;20089;-77
2022/06/25 17:25:57;;;;;;;14.73;9.65;;;21.10;99.90;;;;;;5074950;28;20059;-78
2022/06/25 17:28:23;;;;;;;13.30;9.00;;;21.20;99.90;;;;;;5073760;28;20024;-79
2022/06/25 17:30:49;;;;;;;11.30;8.98;;;21.30;99.90;;;;;;5074487;28;20078;-77
2022/06/25 17:33:15;;;;;;;18.45;8.98;;;21.20;99.90;;;;;;5074980;28;20112;-78
2022/06/25 17:35:41;;;;;;;16.77;8.88;;;21.20;99.90;;;;;;5073513;28;20155;-77
2022/06/25 17:38:07;;;;;;;12.48;8.88;;;21.20;99.90;;;;;;5074550;28;20031;-77
2022/06/25 17:40:36;;;;;;;13.40;9.90;;;21.20;99.90;;;;;;5074835;28;20024;-79
2022/06/25 17:43:02;;;;;;;13.52;10.60;;;21.20;99.90;;;;;;5074621;28;20046;-80
2022/06/25 17:45:28;;;;;;;15.38;10.68;;;21.30;99.90;;;;;;5074353;28;20056;-78
2022/06/25 17:47:54;;;;;;;13.20;10.15;;;21.30;99.90;;;;;;5074453;28;20032;-79
2022/06/25 17:50:21;;;;;;;12.65;9.75;;;21.20;99.90;;;;;;5073357;28;20073;-79
2022/06/25 17:52:46;;;;;;;13.02;9.38;;;21.30;99.90;;;;;;5074069;28;20021;-79
2022/06/25 17:55:12;;;;;;;11.23;9.18;;;21.20;99.90;;;;;;5073513;28;20044;-77
2022/06/25 17:57:39;;;;;;;13.07;9.57;;;21.10;99.90;;;;;;5074395;28;20474;-79
2022/06/25 18:00:07;;;;;;;12.48;9.95;;;21.20;99.90;;;;;;5074163;28;20385;-79
2022/06/25 18:02:33;;;;;;;17.15;9.27;;;21.20;99.90;;;;;;5073185;28;20054;-78
2022/06/25 18:05:00;;;;;;;16.92;10.27;;;21.20;99.90;;;;;;5072637;28;20029;-78
2022/06/25 18:07:26;;;;;;;13.75;10.60;;;21.30;99.90;;;;;;5073766;28;20493;-78
2022/06/25 18:09:52;;;;;;;14.40;9.15;;;21.30;99.90;;;;;;5073245;28;20113;-79
2022/06/25 18:12:19;;;;;;;16.13;10.57;;;21.10;99.90;;;;;;5072812;28;20028;-78
2022/06/25 18:14:45;;;;;;;16.20;9.95;;;21.00;99.90;;;;;;5073889;28;20078;-79
2022/06/25 18:17:11;;;;;;;14.95;9.30;;;21.00;99.90;;;;;;5073845;28;20036;-78
2022/06/25 18:19:36;;;;;;;11.55;9.68;;;21.00;99.90;;;;;;5072477;28;20025;-78
2022/06/25 18:22:03;;;;;;;13.43;9.48;;;20.90;99.90;;;;;;5073622;28;20429;-78
2022/06/25 18:24:28;;;;;;;13.95;9.40;;;20.90;99.90;;;;;;5072789;28;20048;-79
2022/06/25 18:26:54;;;;;;;18.70;9.85;;;21.00;99.90;;;;;;5067938;28;20079;-77
2022/06/25 18:29:20;;;;;;;19.70;11.13;;;20.90;99.90;;;;;;5072429;28;20454;-78
2022/06/25 18:31:46;;;;;;;14.88;10.98;;;21.00;99.90;;;;;;5072041;28;20028;-79
2022/06/25 18:34:12;;;;;;;19.02;11.65;;;20.90;99.90;;;;;;5073026;28;20049;-78
2022/06/25 18:36:38;;;;;;;17.50;12.75;;;20.80;99.90;;;;;;5072812;28;20038;-78
2022/06/25 18:39:04;;;;;;;16.67;11.23;;;20.90;99.90;;;;;;5073261;28;20459;-78
2022/06/25 18:41:31;;;;;;;17.08;10.10;;;20.80;99.90;;;;;;5071908;28;20498;-78
2022/06/25 18:43:56;;;;;;;15.88;11.32;;;20.80;99.90;;;;;;5072799;28;20481;-79
2022/06/25 18:46:22;;;;;;;13.85;10.18;;;20.70;99.90;;;;;;5072616;28;20028;-79
2022/06/25 18:48:48;;;;;;;15.90;10.43;;;20.70;99.90;;;;;;5071290;28;20456;-78
2022/06/25 18:51:14;;;;;;;12.48;11.15;;;20.70;99.90;;;;;;5073026;28;20052;-78
2022/06/25 18:53:40;;;;;;;12.85;11.27;;;20.80;99.90;;;;;;5073201;28;20052;-80
2022/06/25 18:56:07;;;;;;;13.50;10.50;;;20.80;99.90;;;;;;5071894;28;20028;-79
2022/06/25 18:58:37;;;;;;;12.77;10.90;;;20.80;99.90;;;;;;5073573;28;20052;-78
2022/06/25 19:01:03;;;;;;;17.23;12.02;;;20.70;99.90;;;;;;5069836;28;20028;-78
2022/06/25 19:03:29;;;;;;;15.75;12.35;;;20.70;99.90;;;;;;5071888;28;20020;-78
2022/06/25 19:05:55;;;;;;;15.18;12.70;;;20.70;99.90;;;;;;5073048;28;20036;-76
2022/06/25 19:08:21;;;;;;;16.10;13.30;;;20.80;99.90;;;;;;5073044;28;20108;-79
2022/06/25 19:10:47;;;;;;;13.98;12.00;;;20.70;99.90;;;;;;5071872;28;20042;-78
2022/06/25 19:13:13;;;;;;;12.73;11.13;;;20.70;99.90;;;;;;5073006;28;20514;-78
2022/06/25 19:15:39;;;;;;;14.80;12.57;;;20.70;99.90;;;;;;5072616;28;20434;-79
2022/06/25 19:18:06;;;;;;;17.23;12.35;;;20.60;99.90;;;;;;5072615;28;20246;-78
2022/06/25 19:20:32;;;;;;;14.10;8.82;;;20.70;99.90;;;;;;5073609;28;20020;-80
2022/06/25 19:22:58;;;;;;;15.65;12.35;;;20.60;99.90;;;;;;5092492;28;20016;-79
2022/06/25 19:25:23;;;;;;;19.17;12.02;;;20.60;99.90;;;;;;5092710;28;20055;-79
2022/06/25 19:27:49;;;;;;;18.92;11.77;;;20.60;99.90;;;;;;5090491;28;20028;-77
2022/06/25 19:30:15;;;;;;;17.15;10.60;;;20.50;99.90;;;;;;5091711;28;20063;-77
2022/06/25 19:32:41;;;;;;;16.60;10.88;;;20.50;99.90;;;;;;5092584;28;20521;-77
2022/06/25 19:35:12;;;;;;;11.52;10.15;;;20.40;99.90;;;;;;5092777;28;20024;-78
2022/06/25 19:37:39;;;;;;;16.88;11.25;;;20.40;99.90;;;;;;5092723;28;20052;-77
2022/06/25 19:40:06;;;;;;;13.88;10.43;;;20.50;99.90;;;;;;5092798;28;20032;-78
2022/06/25 19:42:35;;;;;;;13.73;10.50;;;20.50;99.90;;;;;;5093108;28;20107;-78
2022/06/25 19:45:03;;;;;;;15.20;10.88;;;20.40;99.90;;;;;;5077214;28;20479;-77
2022/06/25 19:47:29;;;;;;;11.52;10.20;;;20.50;99.90;;;;;;5071506;28;20025;-78
2022/06/25 19:49:55;;;;;;;18.50;10.38;;;20.50;99.90;;;;;;5070949;28;20028;-78
2022/06/25 19:52:23;;;;;;;19.23;10.05;;;20.50;99.90;;;;;;5072212;28;20023;-77
2022/06/25 19:54:50;;;;;;;17.60;9.88;;;20.50;99.90;;;;;;5072402;28;20459;-78
2022/06/25 19:57:17;;;;;;;16.75;11.57;;;20.40;99.90;;;;;;5072802;28;20371;-78
2022/06/25 19:59:43;;;;;;;16.33;11.13;;;20.30;99.90;;;;;;5069793;28;20370;-79
2022/06/25 20:02:09;;;;;;;15.60;11.15;;;20.30;99.90;;;;;;5070133;28;20539;-78
2022/06/25 20:04:35;;;;;;;18.15;11.50;;;20.20;99.90;;;;;;5071137;28;20417;-79
2022/06/25 20:07:00;;;;;;;18.25;12.18;;;20.20;99.90;;;;;;5070472;28;20041;-80
2022/06/25 20:09:26;;;;;;;15.38;12.88;;;20.20;99.90;;;;;;5072723;28;20028;-78
2022/06/25 20:11:52;;;;;;;18.48;13.25;;;20.20;99.90;;;;;;5072455;28;20059;-79
2022/06/25 20:14:19;;;;;;;19.25;12.18;;;20.10;99.90;;;;;;5072394;28;20037;-78
2022/06/25 20:16:46;;;;;;;18.67;12.52;;;20.10;99.90;;;;;;5070913;28;20047;-77
2022/06/25 20:19:12;;;;;;;17.30;13.82;;;20.10;99.90;;;;;;5070710;28;20021;-79
2022/06/25 20:21:38;;;;;;;24.83;17.65;;;20.20;99.90;;;;;;5070899;28;20024;-78
2022/06/25 20:24:05;;;;;;;19.08;14.70;;;20.20;99.90;;;;;;5071088;28;20042;-80
2022/06/25 20:26:32;;;;;;;22.40;15.30;;;20.20;99.90;;;;;;5052059;28;20057;-78
2022/06/25 20:28:59;;;;;;;20.13;16.92;;;20.20;99.90;;;;;;5052274;28;20021;-79
2022/06/25 20:31:25;;;;;;;25.25;15.90;;;20.30;99.90;;;;;;5051178;28;20033;-79
2022/06/25 20:33:51;;;;;;;22.92;17.45;;;20.30;99.90;;;;;;5053821;28;20036;-78
2022/06/25 20:36:17;;;;;;;19.83;15.63;;;20.30;99.90;;;;;;5054868;28;20597;-79
2022/06/25 20:38:43;;;;;;;26.33;17.70;;;20.30;99.90;;;;;;5055756;28;20372;-80
2022/06/25 20:41:10;;;;;;;25.02;16.55;;;20.20;99.90;;;;;;5055335;28;20025;-78
2022/06/25 20:43:35;;;;;;;24.63;16.88;;;20.30;99.90;;;;;;5055957;28;20460;-77
2022/06/25 20:46:01;;;;;;;25.75;18.75;;;20.30;99.90;;;;;;5054222;28;20029;-78
2022/06/25 20:48:28;;;;;;;31.10;18.40;;;20.30;99.90;;;;;;5059216;28;20150;-79
2022/06/25 20:50:53;;;;;;;25.50;17.67;;;20.30;99.90;;;;;;5073101;28;20051;-79
2022/06/25 20:53:19;;;;;;;26.60;18.38;;;20.40;99.90;;;;;;5075965;28;20476;-79
2022/06/25 20:55:45;;;;;;;26.10;17.60;;;20.40;99.90;;;;;;5075287;28;20037;-78
2022/06/25 20:58:11;;;;;;;25.80;17.30;;;20.30;99.90;;;;;;5075377;28;20502;-80
2022/06/25 21:00:37;;;;;;;25.15;17.60;;;20.30;99.90;;;;;;5075297;28;20056;-79
2022/06/25 21:08:31;;;;;;;26.25;15.60;;;20.40;99.90;;;;;;5075248;28;20118;-78
2022/06/25 21:10:57;;;;;;;29.55;14.98;;;20.30;99.90;;;;;;5074237;28;20483;-78
2022/06/25 21:13:23;;;;;;;24.38;15.27;;;20.30;99.90;;;;;;5073629;28;20024;-80
2022/06/25 21:15:49;;;;;;;19.30;14.52;;;20.30;99.90;;;;;;5073393;28;20024;-81
2022/06/25 21:18:15;;;;;;;22.83;14.73;;;20.30;99.90;;;;;;5074580;28;20378;-79
2022/06/25 21:20:41;;;;;;;21.60;14.20;;;20.30;99.90;;;;;;5074539;28;20021;-78
2022/06/25 21:23:09;;;;;;;26.58;15.82;;;20.20;99.90;;;;;;5074125;28;20360;-79
2022/06/25 21:25:35;;;;;;;23.67;14.88;;;20.10;99.90;;;;;;5074447;28;20040;-79